Impacts TAF Board
For situational awareness. Not to be used for flight planning purposes.
IDs:

KDFW - Dallas-Ft Worth Intl, TX, US

Issued at 1500 UTC 01 Mar 2021
Updated at 1712 UTC 01 Mar 2021
Potential Impact None Slight Moderate High
Time1653Z 01/18Z 01/19Z 01/20Z 01/21Z 01/22Z 01/23Z 02/00Z 02/01Z 02/02Z 02/03Z 02/04Z 02/05Z 02/06Z>>
Type OBS PRVL PRVL PRVL PRVL PRVL PRVL PRVL PRVL PRVL PRVL PRVL PRVL PRVL
VIS 10 >6 >6 >6 >6 >6 >6 >6 >6 >6 >6 >6 >6 >6
CIG 180 90 90 -- -- -- -- -- -- -- -- -- -- 25
Cover BKN BKN BKN SCT SCT SCT SCT SCT SCT SCT SCT SCT SCT BKN
FltCat VFR VFR VFR VFR VFR VFR VFR VFR VFR VFR VFR VFR VFR MVFR
WX -RA -- -- -- -- -- -- -- -- -- -- -- -- --
WDir 360 20 20 20 20 20 20 20 20 20 20 20 20 360
WSpd 12 14 14 14 14 14 14 14 14 14 14 14 14 9
WGst -- 24 24 -- -- -- -- -- -- -- -- -- -- --
Raw TAF
KDFW 011500Z 0115/0218 36015G25KT P6SM -RA OVC080
  FM011630 02014G24KT P6SM BKN090
  FM012000 02014KT P6SM SCT090
  FM020600 36009KT P6SM BKN025


Raw METAR
KDFW 011653Z 36012KT 10SM -RA FEW024 SCT033 SCT110 BKN180 10/04 A3027 RMK AO2 RAB52 SLP249 P0000 T01000044
KDFW 011553Z 02009KT 10SM FEW002 SCT080 BKN110 08/04 A3024 RMK AO2 RAE09 SLP239 FU FEW002 SW P0000 T00830044
KDFW 011453Z 11007KT 7SM RA FEW050 BKN075 OVC090 07/04 A3024 RMK AO2 SLP239 P0011 60011 T00670044 53005

METAR Board
Radar Display
Forecast Discussion
For situational awareness. Not to be used for flight planning purposes.